Time;durP1;ratioP1;P1;durP2;ratioP2;P2;SDS_P1;SDS_P2;PMS_P1;PMS_P2;Temp;Humidity;BMP_temperature;BMP_pressure;BME280_temperature;BME280_humidity;BME280_pressure;Samples;Min_cycle;Max_cycle;Signal;HPM_P1;HPM_P2
2020/12/11 00:01:38;;;;;;;18.25;13.60;;;;;;;0.97;80.16;97727.34;6069257;23;20180;-87
2020/12/11 00:04:05;;;;;;;19.08;13.82;;;;;;;0.92;79.87;97732.00;6034017;23;20677;-87
2020/12/11 00:06:40;;;;;;;19.15;14.07;;;;;;;0.85;80.32;97730.59;6021571;23;20216;-87
2020/12/11 00:09:07;;;;;;;17.15;13.35;;;;;;;0.87;80.23;97726.09;6068068;23;20211;-87
2020/12/11 00:11:36;;;;;;;16.52;12.25;;;;;;;0.83;80.32;97708.66;6031457;23;20215;-87
2020/12/11 00:14:02;;;;;;;23.48;13.45;;;;;;;0.82;80.53;97712.22;6048804;23;20236;-87
2020/12/11 00:16:29;;;;;;;21.23;13.52;;;;;;;0.83;80.28;97706.00;6045110;23;20204;-86
2020/12/11 00:18:55;;;;;;;18.65;14.25;;;;;;;0.81;80.58;97704.34;6048417;23;20215;-87
2020/12/11 00:21:22;;;;;;;21.45;14.60;;;;;;;0.81;80.22;97694.66;6059135;23;20207;-84
2020/12/11 00:23:48;;;;;;;19.13;13.30;;;;;;;0.80;80.24;97700.00;6076293;23;20210;-86
2020/12/11 00:26:17;;;;;;;17.13;12.27;;;;;;;0.75;80.27;97713.47;6059035;23;20148;-86
2020/12/11 00:28:43;;;;;;;17.98;13.50;;;;;;;0.75;80.25;97702.88;6054687;23;20199;-84
2020/12/11 00:31:10;;;;;;;15.02;11.60;;;;;;;0.73;80.34;97688.84;6049301;23;20212;-83
2020/12/11 00:33:37;;;;;;;16.63;11.65;;;;;;;0.75;80.36;97689.66;6067313;23;20194;-80
2020/12/11 00:36:03;;;;;;;19.25;13.75;;;;;;;0.75;80.19;97680.84;6086203;23;20730;-84
2020/12/11 00:38:29;;;;;;;23.58;14.00;;;;;;;0.69;80.44;97683.81;6071606;23;20214;-84
2020/12/11 00:40:57;;;;;;;22.13;14.98;;;;;;;0.67;80.46;97673.31;6047793;23;20701;-86
2020/12/11 00:43:23;;;;;;;20.92;13.77;;;;;;;0.73;80.54;97669.50;6046833;23;20218;-86
2020/12/11 00:45:49;;;;;;;18.45;13.40;;;;;;;0.65;80.17;97655.81;6046820;23;20208;-86
2020/12/11 00:48:20;;;;;;;18.70;13.35;;;;;;;0.59;80.63;97656.94;6064636;23;20267;-85
2020/12/11 00:50:46;;;;;;;21.13;12.70;;;;;;;0.62;80.30;97662.09;6064248;23;20259;-85
2020/12/11 00:53:12;;;;;;;19.00;13.00;;;;;;;0.63;80.43;97662.94;6065092;23;20191;-85
2020/12/11 00:55:38;;;;;;;17.08;12.10;;;;;;;0.64;80.51;97665.53;6053501;23;20257;-86
2020/12/11 00:58:04;;;;;;;16.00;12.50;;;;;;;0.58;80.54;97660.53;6051500;23;20216;-85
2020/12/11 01:00:30;;;;;;;13.70;10.60;;;;;;;0.56;80.38;97659.75;6051566;23;20212;-86
2020/12/11 01:02:57;;;;;;;14.35;11.25;;;;;;;0.55;80.48;97670.41;6056781;23;20325;-83
2020/12/11 01:05:27;;;;;;;16.13;11.40;;;;;;;0.58;80.55;97657.06;6063742;23;20176;-85
2020/12/11 01:07:53;;;;;;;14.70;12.07;;;;;;;0.60;80.65;97647.25;6077760;23;20180;-84
2020/12/11 01:10:20;;;;;;;17.63;10.77;;;;;;;0.62;80.67;97629.50;6045613;23;20218;-84
2020/12/11 01:12:48;;;;;;;18.17;11.65;;;;;;;0.63;80.86;97625.91;6044544;23;20216;-85
2020/12/11 01:15:14;;;;;;;19.65;13.32;;;;;;;0.56;80.49;97629.81;6069109;23;20207;-84
2020/12/11 01:17:40;;;;;;;19.90;14.07;;;;;;;0.54;80.78;97631.69;6045268;23;20208;-83
2020/12/11 01:20:06;;;;;;;17.48;11.43;;;;;;;0.54;80.68;97635.19;6044688;23;20214;-87
2020/12/11 01:22:33;;;;;;;17.83;12.48;;;;;;;0.58;80.65;97634.09;6047053;23;20274;-86
2020/12/11 01:24:59;;;;;;;17.70;12.85;;;;;;;0.65;80.10;97630.22;6056663;23;20204;-87
2020/12/11 01:27:25;;;;;;;18.25;12.38;;;;;;;0.78;79.52;97625.16;6065418;23;20207;-86
2020/12/11 01:29:52;;;;;;;15.65;12.48;;;;;;;0.68;79.65;97618.63;6088138;23;20214;-87
2020/12/11 01:32:18;;;;;;;16.27;12.10;;;;;;;0.69;79.45;97623.84;6040567;23;20194;-87
2020/12/11 01:34:44;;;;;;;18.65;12.75;;;;;;;0.76;79.43;97622.59;6057114;23;20180;-86
2020/12/11 01:37:11;;;;;;;19.08;12.63;;;;;;;0.77;79.22;97620.81;6048698;23;20203;-86
2020/12/11 01:39:37;;;;;;;17.92;12.68;;;;;;;0.81;78.97;97619.72;6035801;23;20223;-85
2020/12/11 01:42:09;;;;;;;18.20;12.18;;;;;;;0.79;79.10;97606.56;6072417;23;20231;-87
2020/12/11 01:44:35;;;;;;;16.23;11.93;;;;;;;0.69;79.09;97600.03;6021774;23;20231;-86
2020/12/11 01:47:02;;;;;;;14.88;11.30;;;;;;;0.68;79.28;97593.03;6073490;23;20248;-86
2020/12/11 01:49:30;;;;;;;15.00;11.13;;;;;;;0.65;79.14;97590.53;6042885;23;20211;-86
2020/12/11 01:51:57;;;;;;;17.80;13.25;;;;;;;0.67;79.71;97593.13;6043698;23;20298;-87
2020/12/11 01:54:28;;;;;;;14.60;11.13;;;;;;;0.73;79.50;97569.00;6069757;23;20212;-87
2020/12/11 01:57:06;;;;;;;16.05;11.88;;;;;;;0.75;79.41;97569.75;6085760;23;20187;-85
2020/12/11 01:59:39;;;;;;;19.65;13.07;;;;;;;1.02;79.10;97582.41;6072695;23;20208;-87
2020/12/11 02:02:06;;;;;;;20.02;11.93;;;;;;;1.15;77.93;97583.47;6051979;23;20278;-87
2020/12/11 02:04:34;;;;;;;16.45;12.20;;;;;;;1.00;78.88;97588.72;6050163;23;20204;-87
2020/12/11 02:07:04;;;;;;;16.05;11.80;;;;;;;1.01;78.86;97591.31;6027879;23;20212;-87
2020/12/11 02:09:35;;;;;;;14.23;11.55;;;;;;;1.17;77.67;97586.06;6026098;23;20237;-86
2020/12/11 02:12:03;;;;;;;18.25;11.55;;;;;;;1.04;78.09;97575.25;6024906;23;20207;-87
2020/12/11 02:14:30;;;;;;;17.60;12.25;;;;;;;1.08;78.30;97565.34;6071892;23;20207;-88
2020/12/11 02:16:58;;;;;;;17.95;11.68;;;;;;;1.14;78.28;97552.66;6040624;23;20173;-86
2020/12/11 02:19:29;;;;;;;16.60;13.18;;;;;;;1.12;78.45;97543.09;6041781;23;20226;-87
2020/12/11 02:22:01;;;;;;;16.77;12.57;;;;;;;1.19;78.26;97537.41;6028570;23;20219;-89
2020/12/11 02:24:27;;;;;;;18.75;13.25;;;;;;;1.17;78.45;97547.19;6021757;23;20232;-88
2020/12/11 02:26:58;;;;;;;15.73;12.05;;;;;;;1.19;78.25;97536.53;6044237;23;20260;-87
2020/12/11 02:29:27;;;;;;;19.17;12.98;;;;;;;1.27;78.17;97543.13;6051342;23;20149;-86
2020/12/11 02:31:53;;;;;;;15.75;12.38;;;;;;;1.30;78.18;97535.00;6057159;23;20210;-88
2020/12/11 02:34:23;;;;;;;15.65;11.27;;;;;;;1.32;77.69;97543.75;6045134;23;20263;-88
2020/12/11 02:36:49;;;;;;;16.17;11.90;;;;;;;1.32;77.62;97543.75;6045915;23;20218;-89
2020/12/11 02:39:16;;;;;;;18.42;12.18;;;;;;;1.36;77.74;97537.31;6069242;23;20228;-88
2020/12/11 02:41:47;;;;;;;14.55;11.63;;;;;;;1.41;77.31;97537.94;6036882;23;20235;-86
2020/12/11 02:44:13;;;;;;;16.60;12.05;;;;;;;1.47;77.14;97532.31;6044996;23;20175;-88
2020/12/11 02:46:39;;;;;;;15.80;11.45;;;;;;;1.56;77.31;97539.72;6047945;23;20178;-88
2020/12/11 02:49:05;;;;;;;13.85;11.68;;;;;;;1.60;76.69;97525.38;6045057;23;20204;-88
2020/12/11 02:51:31;;;;;;;17.23;12.15;;;;;;;1.68;76.30;97509.06;6044262;23;20219;-88
2020/12/11 02:53:57;;;;;;;18.25;12.13;;;;;;;1.67;76.29;97512.69;6067973;23;20711;-87
2020/12/11 02:56:23;;;;;;;18.65;12.10;;;;;;;1.66;76.23;97501.22;6021956;23;20182;-87
2020/12/11 02:58:50;;;;;;;17.05;12.32;;;;;;;1.67;75.99;97487.03;6061727;23;20210;-85
2020/12/11 03:01:16;;;;;;;15.45;11.80;;;;;;;1.70;76.06;97480.69;6066981;23;20267;-85
2020/12/11 03:03:42;;;;;;;16.38;12.35;;;;;;;1.69;75.78;97469.22;6065776;23;20196;-87
2020/12/11 03:06:09;;;;;;;15.00;12.05;;;;;;;1.72;75.34;97453.19;6072023;23;20227;-87
2020/12/11 03:08:38;;;;;;;16.02;12.07;;;;;;;1.78;75.30;97449.31;6069378;23;20207;-87
2020/12/11 03:11:04;;;;;;;17.40;12.20;;;;;;;1.80;75.36;97443.00;6069420;23;20192;-86
2020/12/11 03:13:31;;;;;;;17.38;12.30;;;;;;;1.75;75.58;97437.09;6019474;23;20274;-88
2020/12/11 03:15:57;;;;;;;19.60;11.85;;;;;;;1.70;75.52;97436.53;6067209;23;20204;-88
2020/12/11 03:18:24;;;;;;;15.68;11.80;;;;;;;1.69;75.66;97434.78;6021063;23;20204;-87
2020/12/11 03:20:52;;;;;;;17.73;13.40;;;;;;;1.68;75.94;97430.44;6053514;23;20214;-87
2020/12/11 03:23:18;;;;;;;16.38;11.40;;;;;;;1.64;75.94;97418.34;6044062;23;20199;-87
2020/12/11 03:25:44;;;;;;;16.70;11.80;;;;;;;1.63;75.88;97419.28;6046003;23;20176;-87
2020/12/11 03:28:10;;;;;;;20.40;12.38;;;;;;;1.57;76.00;97421.41;6031574;23;20204;-87
2020/12/11 03:30:45;;;;;;;16.13;11.38;;;;;;;1.58;76.20;97428.41;6042464;23;20208;-87
2020/12/11 03:33:11;;;;;;;16.30;12.00;;;;;;;1.55;76.25;97424.16;6041972;23;20199;-88
2020/12/11 03:35:37;;;;;;;16.65;12.15;;;;;;;1.46;76.53;97437.06;6041314;23;20204;-87
2020/12/11 03:38:04;;;;;;;19.83;13.57;;;;;;;1.36;76.95;97436.72;6068456;23;20190;-88
2020/12/11 03:40:31;;;;;;;18.10;13.60;;;;;;;1.29;77.16;97427.41;6018519;23;20207;-88
2020/12/11 03:42:57;;;;;;;22.83;15.60;;;;;;;1.27;77.38;97429.31;6066504;23;20212;-87
2020/12/11 03:45:23;;;;;;;21.90;14.80;;;;;;;1.22;77.69;97427.84;6018724;23;20215;-88
2020/12/11 03:47:49;;;;;;;17.88;13.05;;;;;;;1.24;77.19;97428.63;6042881;23;20206;-87
2020/12/11 03:50:15;;;;;;;17.85;13.05;;;;;;;1.20;77.53;97425.28;6041773;23;20268;-88
2020/12/11 03:52:41;;;;;;;18.85;12.35;;;;;;;1.11;77.71;97425.78;6045580;23;20278;-87
2020/12/11 03:55:07;;;;;;;19.52;14.55;;;;;;;1.07;77.98;97421.63;6043620;23;20267;-87
2020/12/11 03:57:33;;;;;;;24.25;15.02;;;;;;;1.03;78.30;97414.78;6024094;23;20191;-85
2020/12/11 03:59:59;;;;;;;22.00;15.35;;;;;;;0.99;78.39;97413.25;6059034;23;20247;-88
2020/12/11 04:02:25;;;;;;;20.92;13.88;;;;;;;1.03;78.55;97411.28;6021835;23;20280;-87
2020/12/11 04:04:52;;;;;;;25.23;15.80;;;;;;;1.05;78.72;97410.22;6089648;23;20164;-87
2020/12/11 04:07:19;;;;;;;18.13;13.30;;;;;;;1.11;78.72;97404.59;6066347;23;20203;-85
2020/12/11 04:09:45;;;;;;;18.60;13.80;;;;;;;1.14;78.33;97401.81;6082871;23;20275;-87
2020/12/11 04:12:11;;;;;;;18.58;13.30;;;;;;;1.08;78.32;97388.03;6043827;23;20214;-86
2020/12/11 04:14:37;;;;;;;22.98;14.50;;;;;;;1.05;78.53;97381.13;6020604;23;20215;-86
2020/12/11 04:17:04;;;;;;;17.25;13.18;;;;;;;1.02;78.79;97380.44;6023351;23;20171;-87
2020/12/11 04:19:30;;;;;;;19.02;13.32;;;;;;;1.03;78.70;97375.06;6044668;23;20254;-86
2020/12/11 04:21:57;;;;;;;17.23;13.32;;;;;;;1.04;78.85;97374.13;6054365;23;20235;-87
2020/12/11 04:24:23;;;;;;;18.17;12.90;;;;;;;1.10;78.70;97375.59;6053753;23;20335;-86
2020/12/11 04:26:50;;;;;;;17.55;13.00;;;;;;;1.23;78.75;97377.47;6055310;23;20279;-86
2020/12/11 04:29:16;;;;;;;19.77;13.85;;;;;;;1.38;78.33;97370.44;6061554;23;20195;-87
2020/12/11 04:31:42;;;;;;;18.17;13.40;;;;;;;1.51;77.93;97364.38;6060843;23;20247;-87
2020/12/11 04:34:09;;;;;;;19.92;14.30;;;;;;;1.66;77.21;97354.66;6054178;23;20224;-86
2020/12/11 04:36:35;;;;;;;18.80;13.80;;;;;;;1.72;76.65;97354.31;6057710;23;20208;-87
2020/12/11 04:39:01;;;;;;;21.33;14.80;;;;;;;1.83;76.21;97350.09;6042336;23;20200;-86
2020/12/11 04:41:30;;;;;;;22.80;14.90;;;;;;;1.92;75.82;97343.41;6064580;23;20267;-86
2020/12/11 04:44:02;;;;;;;19.70;13.63;;;;;;;2.05;75.37;97339.91;6031980;23;20171;-86
2020/12/11 04:46:29;;;;;;;15.85;12.10;;;;;;;1.92;75.40;97332.81;6044572;23;20210;-86
2020/12/11 04:48:55;;;;;;;16.67;12.77;;;;;;;1.93;75.52;97330.03;6044709;23;20204;-86
2020/12/11 04:51:29;;;;;;;18.05;13.38;;;;;;;1.91;74.97;97316.03;6045136;23;20211;-87
2020/12/11 04:54:01;;;;;;;18.88;13.48;;;;;;;1.83;75.42;97313.00;6046205;23;20200;-87
2020/12/11 04:56:28;;;;;;;16.42;12.00;;;;;;;1.79;75.48;97305.31;6046947;23;20207;-85
2020/12/11 04:58:55;;;;;;;17.75;12.35;;;;;;;1.78;75.89;97306.25;6084735;23;20184;-82
2020/12/11 05:01:30;;;;;;;17.23;12.85;;;;;;;1.88;75.79;97304.78;6062442;23;20282;-85
2020/12/11 05:03:58;;;;;;;19.45;13.55;;;;;;;1.99;75.32;97303.16;6039052;23;20193;-83
2020/12/11 05:06:25;;;;;;;17.73;13.07;;;;;;;2.05;75.10;97292.19;6045463;23;20188;-84
2020/12/11 05:09:12;;;;;;;19.23;13.70;;;;;;;2.15;74.97;97290.72;6068875;23;20189;-82
2020/12/11 05:11:40;;;;;;;19.80;14.38;;;;;;;2.22;74.67;97288.50;6092212;23;20268;-86
2020/12/11 05:14:20;;;;;;;19.30;14.02;;;;;;;2.24;74.80;97282.16;6067760;23;20148;-82
2020/12/11 05:16:58;;;;;;;18.23;13.70;;;;;;;2.27;74.71;97282.00;6068834;23;20160;-84
2020/12/11 05:19:26;;;;;;;16.88;12.98;;;;;;;2.30;73.98;97279.13;6082983;23;20259;-86
2020/12/11 05:22:06;;;;;;;18.23;13.60;;;;;;;2.36;74.26;97281.41;6071319;23;20536;-86
2020/12/11 05:24:42;;;;;;;20.13;14.95;;;;;;;2.44;74.04;97268.50;6067975;23;20235;-86
2020/12/11 05:27:30;;;;;;;17.05;13.50;;;;;;;2.52;73.59;97270.69;6067881;23;20200;-85
2020/12/11 05:30:09;;;;;;;18.80;13.73;;;;;;;2.53;73.61;97267.97;6043887;23;20199;-85
2020/12/11 05:32:48;;;;;;;18.52;13.77;;;;;;;2.58;73.38;97265.84;6044703;23;20231;-86
2020/12/11 05:35:25;;;;;;;20.10;14.30;;;;;;;2.58;73.22;97265.84;6021780;23;20175;-85
2020/12/11 05:38:01;;;;;;;14.73;12.30;;;;;;;2.56;72.89;97258.97;6072895;23;20175;-85
2020/12/11 05:40:44;;;;;;;22.27;15.38;;;;;;;2.55;73.13;97250.13;6082176;23;20207;-83
2020/12/11 05:43:21;;;;;;;17.52;13.15;;;;;;;2.58;73.02;97244.63;6040340;23;20210;-85
2020/12/11 05:45:54;;;;;;;17.88;13.48;;;;;;;2.57;73.03;97242.91;6048335;23;21006;-86
2020/12/11 05:48:23;;;;;;;18.55;13.45;;;;;;;2.64;72.75;97244.22;6046368;23;20207;-83
2020/12/11 05:50:50;;;;;;;16.98;13.20;;;;;;;2.67;73.14;97232.56;6068876;23;20207;-85
2020/12/11 05:53:16;;;;;;;20.30;13.25;;;;;;;2.63;72.86;97237.22;6021757;23;20172;-84
2020/12/11 05:55:43;;;;;;;18.38;13.80;;;;;;;2.71;72.64;97234.09;6071386;23;20260;-85
2020/12/11 05:58:10;;;;;;;18.15;13.45;;;;;;;2.83;72.29;97238.59;6044242;23;20239;-86
2020/12/11 06:00:41;;;;;;;19.05;14.25;;;;;;;2.78;72.17;97230.94;6044429;23;20231;-86
2020/12/11 06:03:08;;;;;;;20.35;14.95;;;;;;;2.73;72.56;97222.44;6069145;23;20208;-86
2020/12/11 06:05:42;;;;;;;18.80;13.90;;;;;;;2.76;72.83;97218.72;6021677;23;20203;-86
2020/12/11 06:08:19;;;;;;;18.63;14.10;;;;;;;2.73;72.78;97211.81;6074072;23;20158;-85
2020/12/11 06:10:49;;;;;;;20.65;14.23;;;;;;;2.77;72.57;97200.03;6024070;23;20200;-87
2020/12/11 06:13:32;;;;;;;22.65;14.63;;;;;;;2.75;72.64;97193.97;6044954;23;20283;-87
2020/12/11 06:16:01;;;;;;;19.73;14.88;;;;;;;2.86;71.55;97196.81;6021114;23;20211;-87
2020/12/11 06:18:30;;;;;;;20.13;13.77;;;;;;;2.95;71.33;97198.00;6021037;23;20212;-87
2020/12/11 06:20:57;;;;;;;19.17;14.20;;;;;;;2.96;71.13;97192.56;6045434;23;20204;-86
2020/12/11 06:23:28;;;;;;;17.95;13.13;;;;;;;2.99;71.16;97191.53;6044564;23;20224;-87
2020/12/11 06:26:01;;;;;;;20.13;14.65;;;;;;;3.01;71.09;97181.66;6048199;23;20382;-87
2020/12/11 06:28:39;;;;;;;17.75;12.65;;;;;;;3.04;70.67;97184.97;6045636;23;20204;-87
2020/12/11 06:31:10;;;;;;;19.95;13.00;;;;;;;3.09;70.41;97176.69;6045329;23;20211;-85
2020/12/11 06:33:52;;;;;;;18.83;13.73;;;;;;;3.19;69.89;97169.78;6074812;23;20255;-85
2020/12/11 06:36:22;;;;;;;17.10;13.25;;;;;;;3.25;69.99;97172.91;6032598;23;20228;-84
2020/12/11 06:38:53;;;;;;;18.40;13.98;;;;;;;3.30;69.72;97176.09;6079626;23;20204;-85
2020/12/11 06:41:28;;;;;;;17.05;13.07;;;;;;;3.28;69.69;97169.19;6086325;23;20179;-86
2020/12/11 06:43:55;;;;;;;16.25;12.85;;;;;;;3.27;69.64;97168.31;6071523;23;20159;-86
2020/12/11 06:46:25;;;;;;;20.67;14.18;;;;;;;3.29;69.14;97168.22;6044275;23;20211;-86
2020/12/11 06:49:07;;;;;;;19.65;13.48;;;;;;;3.30;69.72;97175.25;6055570;23;20203;-85
2020/12/11 06:51:35;;;;;;;19.65;14.07;;;;;;;3.34;69.68;97172.28;6021205;23;20271;-86
2020/12/11 06:54:01;;;;;;;19.52;13.95;;;;;;;3.41;69.41;97178.84;6022283;23;20210;-86
2020/12/11 06:56:44;;;;;;;16.73;11.82;;;;;;;3.42;69.33;97172.63;6044591;23;20774;-86
2020/12/11 06:59:23;;;;;;;18.00;12.25;;;;;;;3.36;69.60;97173.03;6022887;23;20185;-83
2020/12/11 07:01:50;;;;;;;14.88;11.15;;;;;;;3.37;69.43;97172.06;6068007;23;20526;-84
2020/12/11 07:04:17;;;;;;;22.40;13.82;;;;;;;3.35;69.67;97168.66;6039594;23;20218;-83
2020/12/11 07:06:51;;;;;;;15.98;12.10;;;;;;;3.43;69.46;97174.31;6065961;23;20211;-84
2020/12/11 07:09:26;;;;;;;18.27;12.80;;;;;;;3.51;69.28;97169.31;6043535;23;20200;-84
2020/12/11 07:11:52;;;;;;;14.82;11.88;;;;;;;3.51;69.15;97173.78;6066044;23;20204;-83
2020/12/11 07:14:25;;;;;;;17.13;12.77;;;;;;;3.55;69.52;97176.13;6090295;23;20156;-84
2020/12/11 07:16:51;;;;;;;15.05;10.70;;;;;;;3.57;69.40;97171.56;6043682;23;20164;-84
2020/12/11 07:19:17;;;;;;;14.88;11.88;;;;;;;3.62;69.24;97172.09;6090304;23;20243;-82
2020/12/11 07:21:46;;;;;;;15.13;11.02;;;;;;;3.60;69.45;97170.50;6090591;23;20218;-82
2020/12/11 07:24:13;;;;;;;16.08;11.25;;;;;;;3.63;69.36;97160.50;6088258;23;20249;-83
2020/12/11 07:26:39;;;;;;;15.68;11.43;;;;;;;3.62;69.60;97161.47;6054600;23;20206;-87
2020/12/11 07:29:16;;;;;;;13.82;11.18;;;;;;;3.67;69.85;97159.31;6025381;23;20198;-85
2020/12/11 07:31:44;;;;;;;14.88;10.63;;;;;;;3.79;69.98;97162.94;6071171;23;20212;-86
2020/12/11 07:34:15;;;;;;;13.52;10.90;;;;;;;3.73;70.21;97145.59;6020601;23;20627;-85
2020/12/11 07:36:44;;;;;;;14.48;11.50;;;;;;;3.66;70.22;97151.47;6020424;23;20211;-87
2020/12/11 07:39:19;;;;;;;15.00;11.45;;;;;;;3.63;70.59;97149.88;6019317;23;20211;-86
2020/12/11 07:41:50;;;;;;;16.35;11.25;;;;;;;3.66;70.54;97146.16;6056892;23;20286;-86
2020/12/11 07:44:35;;;;;;;19.05;11.93;;;;;;;3.63;70.90;97147.22;6020287;23;20164;-86
2020/12/11 07:47:06;;;;;;;18.05;10.60;;;;;;;3.61;70.80;97138.50;6069635;23;20187;-87
2020/12/11 07:49:44;;;;;;;15.73;11.38;;;;;;;3.69;70.93;97144.16;6020996;23;20645;-87
2020/12/11 07:52:22;;;;;;;12.63;10.32;;;;;;;3.65;71.26;97140.00;6045658;23;20207;-87
2020/12/11 07:54:48;;;;;;;15.82;11.02;;;;;;;3.71;71.00;97134.25;6054207;23;20207;-86
2020/12/11 07:57:18;;;;;;;15.43;11.18;;;;;;;3.76;71.17;97129.47;6039047;23;20204;-86
2020/12/11 08:00:02;;;;;;;14.43;10.23;;;;;;;3.78;70.79;97134.69;6027607;23;20203;-87
2020/12/11 08:02:31;;;;;;;13.45;10.18;;;;;;;3.82;70.54;97125.50;6081557;23;20203;-87
2020/12/11 08:04:58;;;;;;;14.45;10.55;;;;;;;3.84;70.58;97119.13;6037525;23;20186;-86
2020/12/11 08:07:25;;;;;;;17.00;10.88;;;;;;;3.88;70.43;97125.94;6059342;23;20204;-86
2020/12/11 08:09:52;;;;;;;13.82;10.70;;;;;;;3.94;70.17;97129.97;6059971;23;20272;-86
2020/12/11 08:12:22;;;;;;;14.23;10.60;;;;;;;3.93;70.12;97134.41;6059698;23;20212;-86
2020/12/11 08:14:48;;;;;;;14.55;9.10;;;;;;;3.99;69.69;97118.03;6083504;23;20218;-86
2020/12/11 08:17:15;;;;;;;11.70;9.30;;;;;;;3.96;69.79;97123.59;6053850;23;20165;-85
2020/12/11 08:19:43;;;;;;;13.32;11.05;;;;;;;4.05;69.34;97114.94;6050840;23;20267;-87
2020/12/11 08:22:16;;;;;;;12.50;9.30;;;;;;;4.09;69.30;97112.91;6053009;23;20212;-87
2020/12/11 08:24:44;;;;;;;11.75;9.23;;;;;;;4.03;70.03;97116.88;6033960;23;20188;-85
2020/12/11 08:27:24;;;;;;;11.52;8.98;;;;;;;4.01;69.81;97112.63;6067695;23;20216;-86
2020/12/11 08:30:07;;;;;;;11.68;8.90;;;;;;;4.32;69.60;97102.34;6042890;23;20215;-85
2020/12/11 08:32:34;;;;;;;12.70;9.18;;;;;;;4.32;69.82;97105.00;6047443;23;20231;-86
2020/12/11 08:35:00;;;;;;;11.00;8.68;;;;;;;4.39;68.73;97092.09;6036261;23;20167;-84
2020/12/11 08:37:26;;;;;;;9.20;7.57;;;;;;;4.63;68.14;97096.44;6041087;23;20204;-87
2020/12/11 08:40:05;;;;;;;13.85;9.40;;;;;;;4.59;68.12;97102.97;6047384;23;20214;-87
2020/12/11 08:42:42;;;;;;;11.85;8.77;;;;;;;4.63;68.40;97104.41;6046273;23;20231;-87
2020/12/11 08:45:20;;;;;;;11.70;9.10;;;;;;;4.73;68.51;97100.13;6023255;23;20200;-86
2020/12/11 08:48:01;;;;;;;9.25;7.47;;;;;;;4.85;67.32;97098.34;6078586;23;20203;-85
2020/12/11 08:52:54;;;;;;;12.05;8.32;;;;;;;5.00;67.14;97086.56;6067891;23;20231;-84
2020/12/11 08:55:21;;;;;;;9.98;7.60;;;;;;;4.97;67.47;97084.13;6088360;23;20220;-83
2020/12/11 08:57:49;;;;;;;8.80;7.03;;;;;;;5.00;67.59;97081.25;6086342;23;20618;-86
2020/12/11 09:00:17;;;;;;;10.23;7.63;;;;;;;4.97;67.97;97082.31;6051510;23;20219;-86
2020/12/11 09:02:44;;;;;;;10.43;8.45;;;;;;;5.08;67.47;97085.00;6048922;23;20204;-86
2020/12/11 09:05:10;;;;;;;7.68;6.47;;;;;;;5.21;67.19;97077.75;6056477;23;20159;-82
2020/12/11 09:07:37;;;;;;;8.85;7.78;;;;;;;5.18;66.99;97074.50;6057444;23;20164;-86
2020/12/11 09:10:05;;;;;;;9.57;7.10;;;;;;;5.12;67.14;97086.47;6021949;23;20708;-87
2020/12/11 09:12:34;;;;;;;9.40;6.72;;;;;;;5.18;67.60;97075.34;6055480;23;20208;-86
2020/12/11 09:15:00;;;;;;;9.85;7.90;;;;;;;5.23;68.12;97083.84;6048484;23;20255;-86
2020/12/11 09:17:26;;;;;;;7.78;6.97;;;;;;;5.39;67.73;97088.84;6046452;23;20203;-87
2020/12/11 09:19:52;;;;;;;9.32;6.90;;;;;;;5.41;68.33;97082.44;6033349;23;20227;-85
2020/12/11 09:22:18;;;;;;;7.85;6.10;;;;;;;5.31;67.62;97080.56;6062460;23;20208;-85
2020/12/11 09:24:45;;;;;;;7.70;5.97;;;;;;;5.47;67.90;97084.63;6028866;23;20204;-87
2020/12/11 09:27:13;;;;;;;7.78;6.47;;;;;;;5.37;67.54;97086.28;6052754;23;20230;-87
2020/12/11 09:29:43;;;;;;;8.52;5.97;;;;;;;5.41;67.84;97087.75;6036642;23;20200;-83
2020/12/11 09:32:15;;;;;;;7.50;6.65;;;;;;;5.28;67.60;97087.00;6067792;23;20406;-83
2020/12/11 09:34:42;;;;;;;9.02;7.03;;;;;;;5.30;68.10;97087.72;6046697;23;20180;-83
2020/12/11 09:37:08;;;;;;;15.77;11.93;;;;;;;5.53;67.46;97081.44;6063775;23;20202;-86
2020/12/11 09:39:34;;;;;;;8.88;6.70;;;;;;;5.55;67.80;97079.53;6028394;23;20215;-85
2020/12/11 09:42:20;;;;;;;9.65;7.25;;;;;;;5.60;67.39;97082.69;6046447;23;20288;-86
2020/12/11 09:45:06;;;;;;;8.95;7.00;;;;;;;5.72;67.58;97066.56;6071179;23;20204;-86
2020/12/11 09:47:42;;;;;;;8.70;7.28;;;;;;;5.86;67.18;97073.53;6021741;23;20675;-86
2020/12/11 09:55:19;;;;;;;5.82;4.80;;;;;;;6.06;65.85;97054.13;6047447;22;20212;-86
2020/12/11 09:57:45;;;;;;;6.22;5.05;;;;;;;5.96;65.97;97050.47;6049242;23;20752;-85
2020/12/11 10:00:11;;;;;;;6.35;5.55;;;;;;;5.89;66.85;97035.94;6064935;23;20232;-84
2020/12/11 10:02:55;;;;;;;8.10;6.22;;;;;;;5.90;67.35;97026.13;6068490;23;20203;-82
2020/12/11 10:05:23;;;;;;;7.45;5.57;;;;;;;5.96;67.07;97029.13;6066368;23;20152;-82
2020/12/11 10:07:49;;;;;;;7.32;5.38;;;;;;;5.79;67.23;97026.97;6046993;23;20156;-83
2020/12/11 10:10:16;;;;;;;6.72;5.30;;;;;;;5.68;67.83;97020.75;6067445;23;20233;-84
2020/12/11 10:12:44;;;;;;;6.40;5.80;;;;;;;5.62;68.11;97011.44;6042281;23;20252;-85
2020/12/11 10:15:11;;;;;;;6.15;5.47;;;;;;;5.54;68.76;97013.88;6082066;23;20204;-85
2020/12/11 10:17:38;;;;;;;6.32;5.22;;;;;;;5.57;68.56;97008.28;6074963;23;20208;-85
2020/12/11 10:20:05;;;;;;;7.28;5.60;;;;;;;5.65;68.63;97005.84;6051782;23;20613;-84
2020/12/11 10:22:32;;;;;;;7.00;6.20;;;;;;;5.73;68.26;96993.63;6076332;23;20228;-89
2020/12/11 10:24:59;;;;;;;7.43;5.30;;;;;;;5.73;68.45;96998.13;6050444;23;20204;-84
2020/12/11 10:27:25;;;;;;;7.57;6.20;;;;;;;5.82;68.36;96989.41;6049502;23;20219;-86
2020/12/11 10:29:52;;;;;;;6.22;5.32;;;;;;;6.03;67.48;96979.66;6052230;23;20219;-87
2020/12/11 10:32:18;;;;;;;7.57;5.60;;;;;;;6.18;67.58;96976.59;6034377;23;20195;-87
2020/12/11 10:34:45;;;;;;;6.32;5.13;;;;;;;6.46;66.88;96967.16;6055298;23;20212;-85
2020/12/11 10:37:12;;;;;;;6.30;4.78;;;;;;;6.47;66.26;96975.03;6065970;23;20216;-84
2020/12/11 10:39:39;;;;;;;5.88;5.18;;;;;;;6.62;65.44;96964.91;6030956;23;20284;-84
2020/12/11 10:42:06;;;;;;;7.32;6.10;;;;;;;6.75;65.26;96973.59;6057868;23;20206;-84
2020/12/11 10:44:33;;;;;;;5.28;4.75;;;;;;;6.88;64.88;96966.22;6083661;23;20228;-84
2020/12/11 10:47:00;;;;;;;6.03;5.10;;;;;;;6.82;64.50;96958.72;6063366;23;20211;-83
2020/12/11 10:49:26;;;;;;;5.50;5.00;;;;;;;6.80;64.89;96944.63;6087200;23;20192;-83
2020/12/11 10:51:53;;;;;;;5.00;4.50;;;;;;;6.58;65.00;96947.44;6035766;23;20227;-85
2020/12/11 10:54:27;;;;;;;5.50;4.45;;;;;;;6.42;65.82;96945.22;6034403;23;20207;-86
2020/12/11 10:56:54;;;;;;;7.78;5.35;;;;;;;6.63;65.80;96947.91;6056914;23;20203;-86
2020/12/11 10:59:21;;;;;;;6.38;4.95;;;;;;;6.47;65.41;96950.16;6057252;23;20184;-86
2020/12/11 11:01:49;;;;;;;9.07;4.47;;;;;;;6.76;65.17;96941.38;6060222;23;20611;-86
2020/12/11 11:04:17;;;;;;;4.80;4.15;;;;;;;6.97;64.28;96931.56;6030841;23;20231;-86
2020/12/11 11:06:50;;;;;;;6.20;5.18;;;;;;;7.12;64.03;96913.34;6057497;23;20214;-86
2020/12/11 11:12:41;;;;;;;5.63;4.28;;;;;;;7.65;62.43;96899.63;6060356;23;20272;-86
2020/12/11 11:20:05;;;;;;;5.50;3.95;;;;;;;8.37;60.99;96873.41;6061383;23;20180;-87
2020/12/11 11:23:19;;;;;;;5.97;4.80;;;;;;;8.64;59.75;96886.91;6087608;23;20199;-85
2020/12/11 11:27:55;;;;;;;7.15;5.18;;;;;;;8.45;59.59;96870.84;6060514;23;20295;-86
2020/12/11 11:30:23;;;;;;;7.35;4.40;;;;;;;8.28;59.92;96869.75;6077906;23;20204;-85
2020/12/11 11:32:51;;;;;;;4.95;4.45;;;;;;;8.21;59.71;96876.66;6058431;23;20227;-85
2020/12/11 11:35:18;;;;;;;4.40;4.00;;;;;;;8.12;59.54;96876.59;6058865;23;20180;-86
2020/12/11 11:37:45;;;;;;;7.18;6.10;;;;;;;7.92;60.29;96862.34;6061318;23;20232;-86
2020/12/11 11:40:15;;;;;;;6.05;3.80;;;;;;;8.01;60.12;96860.69;6057929;23;20303;-86
2020/12/11 11:42:43;;;;;;;4.82;4.30;;;;;;;7.99;60.41;96852.81;6042829;23;20192;-85
2020/12/11 11:45:20;;;;;;;6.60;4.10;;;;;;;7.83;60.30;96846.28;6065876;23;20200;-87
2020/12/11 11:47:50;;;;;;;4.72;4.28;;;;;;;7.76;60.39;96850.50;6087610;23;20195;-86
2020/12/11 11:50:27;;;;;;;6.47;3.70;;;;;;;8.00;59.82;96842.94;6030625;23;20239;-86
2020/12/11 11:53:01;;;;;;;6.97;4.43;;;;;;;8.02;59.64;96841.81;6048848;23;20254;-86
2020/12/11 11:55:27;;;;;;;5.32;3.47;;;;;;;7.99;59.53;96836.75;6070396;23;20314;-88
2020/12/11 11:57:53;;;;;;;5.47;3.50;;;;;;;7.87;59.88;96832.53;6054396;23;20210;-87